Time;durP1;ratioP1;P1;durP2;ratioP2;P2;SDS_P1;SDS_P2;PMS_P1;PMS_P2;Temp;Humidity;BMP_temperature;BMP_pressure;BME280_temperature;BME280_humidity;BME280_pressure;Samples;Min_cycle;Max_cycle;Signal;HPM_P1;HPM_P2
2023/01/21 00:01:09;;;;;;;9.40;5.57;;;-4.70;99.90;;;;;;4959539;28;20038;-60
2023/01/21 00:03:35;;;;;;;9.55;5.20;;;-4.70;99.90;;;;;;4959393;28;20104;-61
2023/01/21 00:06:03;;;;;;;9.27;5.50;;;-4.70;99.90;;;;;;4958620;28;20085;-61
2023/01/21 00:08:30;;;;;;;11.02;4.60;;;-4.60;99.90;;;;;;4955245;28;20321;-63
2023/01/21 00:11:02;;;;;;;11.10;6.07;;;-4.60;99.90;;;;;;4960161;28;20472;-62
2023/01/21 00:13:29;;;;;;;11.90;6.25;;;-4.70;99.90;;;;;;4959085;28;20042;-63
2023/01/21 00:15:55;;;;;;;;;;;-4.60;99.90;;;;;;4960018;28;20057;-61
2023/01/21 00:18:22;;;;;;;15.00;7.13;;;-4.60;99.90;;;;;;4958713;28;19926;-61
2023/01/21 00:20:49;;;;;;;13.27;6.03;;;-4.60;99.90;;;;;;4959438;28;20042;-60
2023/01/21 00:23:15;;;;;;;;;;;-4.60;99.90;;;;;;4957700;28;20660;-62
2023/01/21 00:25:42;;;;;;;11.85;7.05;;;-4.60;99.90;;;;;;4958275;28;20693;-62
2023/01/21 00:28:09;;;;;;;10.75;5.72;;;-4.60;99.90;;;;;;4955875;28;20592;-61
2023/01/21 00:30:36;;;;;;;10.77;5.13;;;-4.60;99.90;;;;;;4973139;28;20104;-62
2023/01/21 00:33:03;;;;;;;7.38;4.82;;;-4.60;99.90;;;;;;4958812;28;20537;-61
2023/01/21 00:35:30;;;;;;;14.07;7.35;;;-4.60;99.90;;;;;;4957872;28;20065;-61
2023/01/21 00:37:57;;;;;;;9.10;5.78;;;-4.60;99.90;;;;;;4959094;28;20223;-63
2023/01/21 00:40:24;;;;;;;12.68;5.80;;;-4.60;99.90;;;;;;4957901;28;20125;-61
2023/01/21 00:42:51;;;;;;;10.63;6.13;;;-4.60;99.90;;;;;;4959407;28;20052;-62
2023/01/21 00:45:18;;;;;;;9.77;5.20;;;-4.60;99.90;;;;;;4959439;28;20058;-61
2023/01/21 00:47:45;;;;;;;14.15;5.25;;;-4.60;99.90;;;;;;4958558;28;20050;-62
2023/01/21 00:50:11;;;;;;;11.23;5.97;;;-4.60;99.90;;;;;;4958462;28;20486;-63
2023/01/21 00:52:38;;;;;;;9.13;5.78;;;-4.60;99.90;;;;;;4958753;28;20043;-61
2023/01/21 00:55:05;;;;;;;10.93;5.60;;;-4.60;99.90;;;;;;4957711;28;20360;-62
2023/01/21 00:57:32;;;;;;;8.68;4.82;;;-4.60;99.90;;;;;;4958653;28;20123;-61
2023/01/21 00:59:59;;;;;;;9.15;5.45;;;-4.60;99.90;;;;;;4958290;28;20699;-63
2023/01/21 01:02:25;;;;;;;8.32;5.30;;;-4.50;99.90;;;;;;4956636;28;20341;-60
2023/01/21 01:04:52;;;;;;;8.75;5.38;;;-4.50;99.90;;;;;;4958632;28;20070;-61
2023/01/21 01:07:19;;;;;;;;;;;-4.50;99.90;;;;;;4960392;28;20526;-61
2023/01/21 01:09:45;;;;;;;11.98;4.53;;;-4.50;99.90;;;;;;4959964;28;19933;-62
2023/01/21 01:12:12;;;;;;;12.27;4.53;;;-4.50;99.90;;;;;;4959452;28;20446;-62
2023/01/21 01:14:39;;;;;;;9.07;4.78;;;-4.60;99.90;;;;;;4957477;28;20481;-60
2023/01/21 01:17:05;;;;;;;9.80;5.50;;;-4.60;99.90;;;;;;4959135;28;20084;-62
2023/01/21 01:19:32;;;;;;;7.22;4.25;;;-4.60;99.90;;;;;;4957441;28;20429;-63
2023/01/21 01:21:59;;;;;;;6.93;4.38;;;-4.60;99.90;;;;;;4956140;28;20334;-61
2023/01/21 01:24:25;;;;;;;9.50;4.38;;;-4.60;99.90;;;;;;4966840;28;20077;-61
2023/01/21 01:26:52;;;;;;;7.85;4.25;;;-4.60;99.90;;;;;;4958367;28;20055;-63
2023/01/21 01:29:19;;;;;;;8.38;4.07;;;-4.60;99.90;;;;;;4954747;28;20132;-61
2023/01/21 01:31:45;;;;;;;7.35;4.07;;;-4.70;99.90;;;;;;4958619;28;20189;-61
2023/01/21 01:34:12;;;;;;;9.95;3.80;;;-4.70;99.90;;;;;;4958794;28;20319;-61
2023/01/21 01:36:39;;;;;;;6.43;3.83;;;-4.70;99.90;;;;;;4956716;28;20034;-60
2023/01/21 01:39:06;;;;;;;8.30;4.03;;;-4.70;99.90;;;;;;4956444;28;20691;-63
2023/01/21 01:41:34;;;;;;;10.43;4.40;;;-4.80;99.90;;;;;;4958396;28;20296;-62
2023/01/21 01:44:03;;;;;;;8.38;4.05;;;-4.80;99.90;;;;;;4958360;28;20517;-61
2023/01/21 01:46:32;;;;;;;8.80;3.97;;;-4.90;99.90;;;;;;4959674;28;20094;-62
2023/01/21 01:49:15;;;;;;;6.57;3.35;;;-4.90;99.90;;;;;;4958843;28;20301;-60
2023/01/21 01:51:53;;;;;;;6.82;3.80;;;-4.90;99.90;;;;;;4958235;28;20051;-61
2023/01/21 01:54:30;;;;;;;6.72;3.20;;;-5.00;99.90;;;;;;4958507;28;20225;-63
2023/01/21 01:56:58;;;;;;;;;;;-5.00;99.90;;;;;;4957580;28;20304;-61
2023/01/21 01:59:26;;;;;;;4.93;3.15;;;-4.90;99.90;;;;;;4959345;28;20235;-63
2023/01/21 02:01:55;;;;;;;6.03;3.75;;;-4.90;99.90;;;;;;4957276;28;20836;-61
2023/01/21 02:04:28;;;;;;;5.10;3.35;;;-4.90;99.90;;;;;;4954994;28;20105;-60
2023/01/21 02:06:56;;;;;;;7.47;3.67;;;-4.80;99.90;;;;;;4956298;28;20133;-61
2023/01/21 02:09:28;;;;;;;8.75;3.50;;;-4.80;99.90;;;;;;4959321;28;20050;-62
2023/01/21 02:12:00;;;;;;;6.30;4.25;;;-4.80;99.90;;;;;;4957020;28;20421;-62
2023/01/21 02:14:29;;;;;;;10.68;3.92;;;-4.80;99.90;;;;;;4954124;28;20042;-61
2023/01/21 02:17:16;;;;;;;8.35;3.40;;;-4.80;99.90;;;;;;4958368;28;20045;-62
2023/01/21 02:20:17;;;;;;;4.43;2.88;;;-4.80;99.90;;;;;;4958313;28;20477;-61
2023/01/21 02:23:24;;;;;;;8.52;3.63;;;-4.80;99.90;;;;;;4958991;28;20051;-63
2023/01/21 02:26:17;;;;;;;6.88;3.63;;;-4.80;99.90;;;;;;4955210;28;20081;-61
2023/01/21 02:29:09;;;;;;;5.55;3.33;;;-4.80;99.90;;;;;;4955883;28;20362;-63
2023/01/21 02:31:49;;;;;;;6.53;3.45;;;-4.80;99.90;;;;;;4954593;28;20129;-63
2023/01/21 02:34:50;;;;;;;9.80;3.47;;;-4.80;99.90;;;;;;4957208;28;20242;-62
2023/01/21 02:37:52;;;;;;;9.40;3.65;;;-4.80;99.90;;;;;;4956091;28;20043;-61
2023/01/21 02:40:54;;;;;;;8.98;4.20;;;-4.80;99.90;;;;;;4957109;28;20580;-63
2023/01/21 02:43:26;;;;;;;5.95;3.35;;;-4.80;99.90;;;;;;4955889;28;20035;-64
2023/01/21 02:46:17;;;;;;;5.85;3.58;;;-4.90;99.90;;;;;;4954993;28;20614;-63
2023/01/21 02:49:03;;;;;;;7.85;3.20;;;-4.80;99.90;;;;;;4955579;28;20329;-62
2023/01/21 02:51:29;;;;;;;5.85;3.20;;;-4.90;99.90;;;;;;4955416;28;20043;-63
2023/01/21 02:53:56;;;;;;;;;;;-4.80;99.90;;;;;;4954015;28;20566;-62
2023/01/21 02:56:25;;;;;;;8.48;3.33;;;-4.80;99.90;;;;;;4957098;28;20028;-64
2023/01/21 02:58:59;;;;;;;9.55;4.25;;;-4.80;99.90;;;;;;4958496;28;20042;-63
2023/01/21 03:02:08;;;;;;;5.90;2.72;;;-4.80;99.90;;;;;;4957320;28;20521;-63
2023/01/21 03:05:15;;;;;;;9.00;3.67;;;-4.80;99.90;;;;;;4956023;28;20368;-61
2023/01/21 03:07:55;;;;;;;5.18;3.08;;;-4.80;99.90;;;;;;4953822;28;20055;-62
2023/01/21 03:10:41;;;;;;;6.47;3.60;;;-4.80;99.90;;;;;;4957520;28;20047;-63
2023/01/21 03:13:10;;;;;;;7.95;3.13;;;-4.80;99.90;;;;;;4956908;28;20193;-61
2023/01/21 03:18:43;;;;;;;6.68;3.80;;;-4.80;99.90;;;;;;4954495;28;20125;-61
2023/01/21 03:21:15;;;;;;;7.72;4.32;;;-4.80;99.90;;;;;;4956216;28;20731;-62
2023/01/21 03:23:46;;;;;;;8.30;3.72;;;-4.90;99.90;;;;;;4957347;28;20131;-62
2023/01/21 03:26:17;;;;;;;6.70;3.90;;;-4.90;99.90;;;;;;4947530;28;20339;-62
2023/01/21 03:28:47;;;;;;;6.63;3.90;;;-5.00;99.90;;;;;;4955505;28;20638;-60
2023/01/21 03:31:20;;;;;;;6.63;3.65;;;-5.00;99.90;;;;;;4955164;28;20074;-61
2023/01/21 03:33:52;;;;;;;7.47;3.80;;;-5.00;99.90;;;;;;4956429;28;20415;-61
2023/01/21 03:37:01;;;;;;;7.10;3.80;;;-5.00;99.90;;;;;;4954597;28;20565;-61
2023/01/21 03:39:58;;;;;;;8.65;5.00;;;-5.00;99.90;;;;;;4933807;28;20093;-61
2023/01/21 03:42:26;;;;;;;6.85;3.47;;;-5.00;99.90;;;;;;4947495;28;20050;-60
2023/01/21 03:44:53;;;;;;;7.95;3.42;;;-5.00;99.90;;;;;;4955386;28;20043;-63
2023/01/21 03:47:33;;;;;;;6.82;3.53;;;-5.00;99.90;;;;;;4952331;28;20593;-60
2023/01/21 03:50:03;;;;;;;8.77;4.10;;;-5.00;99.90;;;;;;4955193;28;20129;-64
2023/01/21 03:52:30;;;;;;;7.32;3.90;;;-5.00;99.90;;;;;;4958533;28;20597;-63
2023/01/21 03:54:58;;;;;;;8.75;4.32;;;-5.00;99.90;;;;;;4956602;28;20043;-63
2023/01/21 03:57:25;;;;;;;5.25;3.38;;;-5.00;99.90;;;;;;4958594;28;20636;-64
2023/01/21 03:59:52;;;;;;;9.70;4.68;;;-5.00;99.90;;;;;;4959834;28;20191;-63
2023/01/21 04:02:19;;;;;;;12.75;5.00;;;-4.90;99.90;;;;;;4957486;28;20473;-64
2023/01/21 04:04:46;;;;;;;7.57;4.10;;;-5.00;99.90;;;;;;4954549;28;20050;-63
2023/01/21 04:07:14;;;;;;;6.55;3.45;;;-5.00;99.90;;;;;;4955619;28;20522;-62
2023/01/21 04:09:42;;;;;;;7.03;4.55;;;-5.00;99.90;;;;;;4955629;28;20670;-62
2023/01/21 04:12:09;;;;;;;7.65;4.72;;;-5.00;99.90;;;;;;4971890;28;20628;-63
2023/01/21 04:14:36;;;;;;;6.30;4.05;;;-5.00;99.90;;;;;;4956864;28;20038;-63
2023/01/21 04:17:03;;;;;;;8.45;4.20;;;-4.90;99.90;;;;;;4955726;28;20047;-64
2023/01/21 04:19:30;;;;;;;7.03;4.00;;;-4.90;99.90;;;;;;4955477;28;20073;-63
2023/01/21 04:21:56;;;;;;;8.70;4.53;;;-5.00;99.90;;;;;;4955398;28;20494;-63
2023/01/21 04:24:23;;;;;;;6.68;3.97;;;-5.00;99.90;;;;;;4958632;28;20477;-62
2023/01/21 04:26:51;;;;;;;6.43;4.07;;;-5.00;99.90;;;;;;4959733;28;20550;-64
2023/01/21 04:29:18;;;;;;;7.68;4.47;;;-5.00;99.90;;;;;;4958749;28;20042;-62
2023/01/21 04:31:44;;;;;;;8.63;4.78;;;-5.00;99.90;;;;;;4960009;28;20043;-61
2023/01/21 04:34:11;;;;;;;7.22;4.43;;;-5.10;99.90;;;;;;4957542;28;20102;-61
2023/01/21 04:36:38;;;;;;;6.88;4.03;;;-5.10;99.90;;;;;;4957944;28;20038;-63
2023/01/21 04:39:05;;;;;;;7.80;4.35;;;-5.00;99.90;;;;;;4957182;28;20047;-62
2023/01/21 04:41:31;;;;;;;10.57;5.28;;;-5.10;99.90;;;;;;4959351;28;20678;-62
2023/01/21 04:43:58;;;;;;;10.88;5.60;;;-5.10;99.90;;;;;;4960036;28;20064;-64
2023/01/21 04:46:25;;;;;;;10.82;6.38;;;-5.10;99.90;;;;;;4956851;28;20047;-63
2023/01/21 04:48:51;;;;;;;12.40;6.60;;;-5.00;99.90;;;;;;4957570;28;20054;-63
2023/01/21 04:51:19;;;;;;;8.93;4.97;;;-5.00;99.90;;;;;;4954749;28;20038;-63
2023/01/21 04:53:45;;;;;;;10.25;5.88;;;-5.00;99.90;;;;;;4958440;28;20229;-62
2023/01/21 04:56:12;;;;;;;9.75;5.38;;;-4.90;99.90;;;;;;4957863;28;20316;-62
2023/01/21 04:58:39;;;;;;;9.27;5.45;;;-4.90;99.90;;;;;;4959643;28;20042;-63
2023/01/21 05:01:05;;;;;;;11.45;5.00;;;-4.90;99.90;;;;;;4958918;28;20066;-60
2023/01/21 05:03:32;;;;;;;8.85;5.18;;;-4.80;99.90;;;;;;4957961;28;20055;-63
2023/01/21 05:05:59;;;;;;;13.73;6.15;;;-4.80;99.90;;;;;;4959307;28;20406;-64
2023/01/21 05:08:26;;;;;;;12.23;7.15;;;-4.80;99.90;;;;;;4958868;28;20124;-63
2023/01/21 05:10:52;;;;;;;11.93;6.00;;;-4.70;99.90;;;;;;4957476;28;20074;-64
2023/01/21 05:13:19;;;;;;;12.05;5.75;;;-4.70;99.90;;;;;;4959481;28;20549;-63
2023/01/21 05:15:46;;;;;;;17.25;8.02;;;-4.70;99.90;;;;;;4961391;28;20432;-64
2023/01/21 05:18:12;;;;;;;16.75;7.97;;;-4.60;99.90;;;;;;4965510;28;20276;-64
2023/01/21 05:20:39;;;;;;;16.25;8.30;;;-4.60;99.90;;;;;;4959717;28;20351;-62
2023/01/21 05:23:06;;;;;;;15.55;8.18;;;-4.60;99.90;;;;;;4959554;28;20074;-63
2023/01/21 05:25:32;;;;;;;18.67;10.18;;;-4.60;99.90;;;;;;4957941;28;20296;-64
2023/01/21 05:27:59;;;;;;;23.27;9.57;;;-4.50;99.90;;;;;;4958936;28;20204;-63
2023/01/21 05:30:26;;;;;;;19.10;9.43;;;-4.50;99.90;;;;;;4960342;28;20486;-63
2023/01/21 05:32:53;;;;;;;18.80;10.65;;;-4.50;99.90;;;;;;4957267;28;20054;-62
2023/01/21 05:35:22;;;;;;;23.58;11.55;;;-4.40;99.90;;;;;;4957625;28;20069;-62
2023/01/21 05:37:49;;;;;;;20.08;10.50;;;-4.40;99.90;;;;;;4959020;28;20047;-63
2023/01/21 05:40:16;;;;;;;23.05;9.85;;;-4.40;99.90;;;;;;4959384;28;20038;-62
2023/01/21 05:42:44;;;;;;;19.10;10.20;;;-4.40;99.90;;;;;;4957728;28;20052;-63
2023/01/21 05:45:11;;;;;;;16.35;9.10;;;-4.30;99.90;;;;;;4959339;28;20054;-64
2023/01/21 05:47:38;;;;;;;17.10;8.82;;;-4.30;99.90;;;;;;4954390;28;20644;-62
2023/01/21 05:50:05;;;;;;;25.23;10.70;;;-4.30;99.90;;;;;;4958947;28;20092;-63
2023/01/21 05:52:32;;;;;;;14.02;7.18;;;-4.30;99.90;;;;;;4958128;28;20524;-63
2023/01/21 05:54:59;;;;;;;20.55;8.75;;;-4.30;99.90;;;;;;4958460;28;20077;-62
2023/01/21 05:57:29;;;;;;;17.77;9.48;;;-4.30;99.90;;;;;;4959254;28;20090;-64
2023/01/21 05:59:56;;;;;;;15.73;9.27;;;-4.30;99.90;;;;;;4958901;28;20039;-63
2023/01/21 06:02:24;;;;;;;24.58;11.80;;;-4.20;99.90;;;;;;4957070;28;20141;-63
2023/01/21 06:04:50;;;;;;;27.42;13.85;;;-4.20;99.90;;;;;;4959516;28;20082;-62
2023/01/21 06:07:17;;;;;;;;;;;-4.20;99.90;;;;;;4958880;28;20048;-64
2023/01/21 06:09:44;;;;;;;29.45;12.88;;;-4.20;99.90;;;;;;4962714;28;20054;-64
2023/01/21 06:12:10;;;;;;;29.80;15.68;;;-4.20;99.90;;;;;;4958123;28;20055;-62
2023/01/21 06:14:37;;;;;;;32.95;16.08;;;-4.20;99.90;;;;;;4959194;28;20138;-63
2023/01/21 06:17:04;;;;;;;29.45;17.25;;;-4.10;99.90;;;;;;4959079;28;20300;-64
2023/01/21 06:19:30;;;;;;;37.75;16.95;;;-4.10;99.90;;;;;;4959097;28;20337;-63
2023/01/21 06:21:57;;;;;;;31.38;16.73;;;-4.10;99.90;;;;;;4957807;28;20078;-64
2023/01/21 06:24:24;;;;;;;30.38;15.50;;;-4.10;99.90;;;;;;4957807;28;20045;-63
2023/01/21 06:26:52;;;;;;;36.75;18.83;;;-4.00;99.90;;;;;;4953970;28;20357;-63
2023/01/21 06:29:18;;;;;;;35.67;17.17;;;-4.00;99.90;;;;;;4957475;28;20304;-63
2023/01/21 06:31:45;;;;;;;39.13;19.30;;;-4.00;99.90;;;;;;4958076;28;20050;-62
2023/01/21 06:34:12;;;;;;;43.50;21.38;;;-4.00;99.90;;;;;;4956264;28;20051;-61
2023/01/21 06:36:41;;;;;;;48.47;22.73;;;-3.90;99.90;;;;;;4958577;28;20077;-62
2023/01/21 06:39:09;;;;;;;54.75;25.88;;;-3.90;99.90;;;;;;4956734;28;20053;-62
2023/01/21 06:41:36;;;;;;;61.90;30.10;;;-3.90;99.90;;;;;;4958438;28;20055;-63
2023/01/21 06:44:03;;;;;;;60.67;29.98;;;-3.90;99.90;;;;;;4972089;28;20068;-63
2023/01/21 06:46:30;;;;;;;59.85;30.55;;;-3.90;99.90;;;;;;4956804;28;20473;-63
2023/01/21 06:48:57;;;;;;;62.65;30.20;;;-3.80;99.90;;;;;;4956495;28;20057;-63
2023/01/21 06:51:24;;;;;;;66.80;30.58;;;-3.80;99.90;;;;;;4957949;28;20038;-64
2023/01/21 06:53:50;;;;;;;67.97;30.77;;;-3.80;99.90;;;;;;4957873;28;20557;-54
2023/01/21 06:56:17;;;;;;;71.82;33.80;;;-3.80;99.90;;;;;;4957334;28;20113;-54
2023/01/21 06:58:44;;;;;;;70.18;33.35;;;-3.70;99.90;;;;;;4957777;28;20125;-53
2023/01/21 07:01:11;;;;;;;68.03;31.80;;;-3.70;99.90;;;;;;4957897;28;20160;-54
2023/01/21 07:03:37;;;;;;;59.60;28.75;;;-3.70;99.90;;;;;;4957822;28;20129;-53
2023/01/21 07:06:04;;;;;;;;;;;-3.60;99.90;;;;;;4959874;28;20046;-55
2023/01/21 07:08:32;;;;;;;64.25;28.27;;;-3.60;99.90;;;;;;4972493;28;20285;-52
2023/01/21 07:10:59;;;;;;;65.35;30.52;;;-3.60;99.90;;;;;;4956599;28;20121;-54
2023/01/21 07:13:25;;;;;;;65.78;31.63;;;-3.60;99.90;;;;;;4952738;28;20565;-52
2023/01/21 07:15:57;;;;;;;72.40;34.38;;;-3.60;99.90;;;;;;4959505;28;20046;-53
2023/01/21 07:18:24;;;;;;;70.40;34.65;;;-3.60;99.90;;;;;;4955140;28;20070;-55
2023/01/21 07:20:50;;;;;;;77.30;35.50;;;-3.60;99.90;;;;;;4955728;28;20703;-54
2023/01/21 07:23:17;;;;;;;76.45;36.33;;;-3.60;99.90;;;;;;4958160;28;20125;-54
2023/01/21 07:25:44;;;;;;;;;;;-3.60;99.90;;;;;;4957332;28;20125;-54
2023/01/21 07:28:11;;;;;;;82.43;35.03;;;-3.50;99.90;;;;;;4959369;28;19961;-53
2023/01/21 07:30:38;;;;;;;81.13;37.92;;;-3.50;99.90;;;;;;4957523;28;20046;-53
2023/01/21 07:33:06;;;;;;;71.15;33.90;;;-3.50;99.90;;;;;;4957077;28;20094;-54
2023/01/21 07:35:33;;;;;;;79.85;36.58;;;-3.50;99.90;;;;;;4954750;28;20053;-55
2023/01/21 07:38:00;;;;;;;73.25;34.38;;;-3.50;99.90;;;;;;4955750;28;20331;-54
2023/01/21 07:40:27;;;;;;;75.40;35.97;;;-3.50;99.90;;;;;;4955317;28;20042;-53
2023/01/21 07:42:55;;;;;;;70.88;35.13;;;-3.50;99.90;;;;;;4954689;28;20109;-53
2023/01/21 07:45:23;;;;;;;72.68;34.58;;;-3.50;99.90;;;;;;4956442;28;20034;-54
2023/01/21 07:47:50;;;;;;;72.78;33.63;;;-3.50;99.90;;;;;;4952615;28;20054;-52
2023/01/21 07:50:16;;;;;;;65.35;34.42;;;-3.40;99.90;;;;;;4955779;28;20054;-53
2023/01/21 07:52:43;;;;;;;84.78;37.75;;;-3.40;99.90;;;;;;4956526;28;20378;-54
2023/01/21 07:55:10;;;;;;;;;;;-3.40;99.90;;;;;;4955761;28;20042;-53
2023/01/21 07:57:38;;;;;;;78.43;35.72;;;-3.40;99.90;;;;;;4955726;28;20202;-52
2023/01/21 08:00:05;;;;;;;72.75;35.60;;;-3.30;99.90;;;;;;4965890;28;20046;-50
2023/01/21 08:02:37;;;;;;;77.45;37.83;;;-3.30;99.90;;;;;;4960290;28;20054;-53
2023/01/21 08:05:05;;;;;;;71.03;35.08;;;-3.30;99.90;;;;;;4959998;28;20054;-53
2023/01/21 08:07:32;;;;;;;77.50;34.35;;;-3.20;99.90;;;;;;4958425;28;20051;-52
2023/01/21 08:09:58;;;;;;;78.93;35.83;;;-3.20;99.90;;;;;;4960737;28;20272;-50
2023/01/21 08:12:25;;;;;;;74.70;38.90;;;-3.10;99.90;;;;;;4960305;28;20046;-51
2023/01/21 08:14:53;;;;;;;69.38;34.90;;;-3.10;99.90;;;;;;4959486;28;20582;-52
2023/01/21 08:17:20;;;;;;;76.57;35.53;;;-3.10;99.90;;;;;;4959180;28;20244;-52
2023/01/21 08:19:46;;;;;;;74.03;34.40;;;-3.00;99.90;;;;;;4959365;28;20069;-53
2023/01/21 08:22:13;;;;;;;;;;;-3.00;99.90;;;;;;4957614;28;20237;-54
2023/01/21 08:24:40;;;;;;;67.78;34.15;;;-3.00;99.90;;;;;;4959069;28;20305;-52
2023/01/21 08:27:06;;;;;;;72.05;33.72;;;-3.00;99.90;;;;;;4956927;28;20470;-52
2023/01/21 08:29:33;;;;;;;70.03;33.78;;;-3.00;99.90;;;;;;4945045;28;20047;-52
2023/01/21 08:32:00;;;;;;;61.60;31.77;;;-3.00;99.90;;;;;;4945413;28;20332;-51
2023/01/21 08:34:27;;;;;;;68.28;34.20;;;-3.00;99.90;;;;;;4953126;28;20159;-50
2023/01/21 08:36:54;;;;;;;71.20;34.10;;;-3.00;99.90;;;;;;4941017;28;20530;-51
2023/01/21 08:39:20;;;;;;;65.75;34.15;;;-3.00;99.90;;;;;;4946592;28;20038;-50
2023/01/21 08:41:47;;;;;;;64.40;32.83;;;-3.00;99.90;;;;;;4945549;28;20471;-52
2023/01/21 08:44:14;;;;;;;66.10;33.95;;;-3.00;99.90;;;;;;4944353;28;20051;-51
2023/01/21 08:46:41;;;;;;;65.20;31.92;;;-3.00;99.90;;;;;;4947496;28;20054;-49
2023/01/21 08:49:08;;;;;;;62.08;30.88;;;-3.00;99.90;;;;;;4944876;28;20525;-49
2023/01/21 08:51:34;;;;;;;63.47;32.00;;;-2.90;99.90;;;;;;4948215;28;20743;-51
2023/01/21 08:54:05;;;;;;;63.88;30.25;;;-2.90;99.90;;;;;;4946529;28;20047;-51
2023/01/21 08:56:32;;;;;;;66.72;32.92;;;-2.90;99.90;;;;;;4947032;28;20319;-56
2023/01/21 08:59:01;;;;;;;70.90;34.78;;;-2.80;99.90;;;;;;4941308;28;20597;-52
2023/01/21 09:01:28;;;;;;;67.22;33.17;;;-2.80;99.90;;;;;;4952117;28;20241;-49
2023/01/21 09:03:59;;;;;;;65.40;32.85;;;-2.80;99.90;;;;;;4950714;28;20050;-52
2023/01/21 09:06:29;;;;;;;57.33;30.88;;;-2.80;99.90;;;;;;4953271;28;20509;-50
2023/01/21 09:08:56;;;;;;;53.70;29.08;;;-2.70;99.90;;;;;;4945874;28;20049;-51
2023/01/21 09:11:25;;;;;;;60.10;29.77;;;-2.70;99.90;;;;;;4943397;28;20121;-50
2023/01/21 09:13:52;;;;;;;57.55;28.50;;;-2.70;99.90;;;;;;4951295;28;20143;-49
2023/01/21 09:16:21;;;;;;;60.35;29.17;;;-2.60;99.90;;;;;;4951055;28;20452;-51
2023/01/21 09:18:48;;;;;;;51.00;25.40;;;-2.60;99.90;;;;;;4947126;28;20286;-49
2023/01/21 09:21:15;;;;;;;54.72;29.65;;;-2.50;99.90;;;;;;4944523;28;20252;-51
2023/01/21 09:23:43;;;;;;;51.83;26.70;;;-2.50;99.90;;;;;;4946165;28;20062;-52
2023/01/21 09:26:15;;;;;;;54.97;26.10;;;-2.40;99.90;;;;;;4945034;28;20057;-53
2023/01/21 09:28:44;;;;;;;56.08;28.35;;;-2.40;99.90;;;;;;4943908;28;20188;-49
2023/01/21 09:31:14;;;;;;;55.08;27.90;;;-2.30;99.90;;;;;;4946059;28;20125;-49
2023/01/21 09:33:44;;;;;;;55.25;26.80;;;-2.40;99.90;;;;;;4948095;28;20050;-63
2023/01/21 09:36:15;;;;;;;55.05;27.55;;;-2.30;99.90;;;;;;4943218;28;20285;-49
2023/01/21 09:38:42;;;;;;;49.15;23.55;;;-2.40;99.90;;;;;;4941403;28;20601;-48
2023/01/21 09:41:27;;;;;;;46.50;23.45;;;-2.40;99.90;;;;;;4949888;28;20057;-51
2023/01/21 09:44:09;;;;;;;57.40;24.90;;;-2.40;99.90;;;;;;4945675;28;20253;-50
2023/01/21 09:46:45;;;;;;;53.13;23.75;;;-2.40;99.90;;;;;;4945970;28;20050;-51
2023/01/21 09:49:41;;;;;;;54.05;27.50;;;-2.40;99.90;;;;;;4945242;28;20050;-51
2023/01/21 09:52:26;;;;;;;53.90;26.42;;;-2.40;99.90;;;;;;4943764;28;20149;-50
2023/01/21 09:54:54;;;;;;;55.72;26.73;;;-2.40;99.90;;;;;;4942728;28;20051;-49
2023/01/21 09:57:39;;;;;;;60.83;29.02;;;-2.40;99.90;;;;;;4944680;28;20320;-52
2023/01/21 10:00:15;;;;;;;64.88;29.02;;;-2.40;99.90;;;;;;4943637;28;20410;-52
2023/01/21 10:03:04;;;;;;;63.40;28.77;;;-2.30;99.90;;;;;;4951315;28;20055;-49
2023/01/21 10:05:59;;;;;;;54.15;27.30;;;-2.10;99.90;;;;;;4944870;28;20556;-50
2023/01/21 10:08:48;;;;;;;49.92;25.20;;;-1.80;99.90;;;;;;4943144;28;20161;-51
2023/01/21 10:11:39;;;;;;;48.72;26.08;;;-1.60;99.90;;;;;;4943300;28;20052;-49
2023/01/21 10:14:34;;;;;;;55.65;26.10;;;-1.70;99.90;;;;;;4943829;28;20422;-53
2023/01/21 10:17:25;;;;;;;60.15;26.77;;;-1.70;99.90;;;;;;4944363;28;20058;-51
2023/01/21 10:20:12;;;;;;;54.20;26.73;;;-1.80;99.90;;;;;;4941172;28;20061;-51
2023/01/21 10:22:49;;;;;;;44.25;21.30;;;-1.80;99.90;;;;;;4944257;28;20042;-53
2023/01/21 10:25:31;;;;;;;55.42;27.50;;;-1.90;99.90;;;;;;4944257;28;20047;-53
2023/01/21 10:28:10;;;;;;;67.85;33.08;;;-1.90;99.90;;;;;;4956823;28;20132;-55
2023/01/21 10:30:40;;;;;;;72.68;33.53;;;-2.00;99.90;;;;;;4943847;28;20042;-56
2023/01/21 10:33:23;;;;;;;66.97;31.75;;;-2.10;99.90;;;;;;4942177;28;20047;-56
2023/01/21 10:36:05;;;;;;;61.85;31.42;;;-2.20;99.90;;;;;;4941416;28;20057;-52
2023/01/21 10:38:50;;;;;;;68.20;33.75;;;-2.20;99.90;;;;;;4942235;28;20042;-55
2023/01/21 10:41:17;;;;;;;72.05;33.30;;;-2.20;99.90;;;;;;4941460;28;20047;-58
2023/01/21 10:45:02;;;;;;;75.03;33.13;;;-2.30;99.90;;;;;;5006345;28;20706;-59
2023/01/21 10:47:45;;;;;;;69.60;31.70;;;-2.40;99.90;;;;;;4998116;28;20454;-56
2023/01/21 10:50:21;;;;;;;72.18;32.35;;;-2.40;99.90;;;;;;5000410;28;20053;-51
2023/01/21 10:53:13;;;;;;;68.93;33.17;;;-2.40;99.90;;;;;;4997340;28;20470;-50
2023/01/21 10:56:13;;;;;;;73.55;33.17;;;-2.40;99.90;;;;;;4995081;28;20352;-52
2023/01/21 10:58:54;;;;;;;68.85;30.40;;;-2.50;99.90;;;;;;4996196;28;20289;-53
2023/01/21 11:01:28;;;;;;;70.25;32.72;;;-2.50;99.90;;;;;;4999620;28;20268;-52
2023/01/21 11:03:59;;;;;;;70.22;33.05;;;-2.40;99.90;;;;;;5001241;28;20044;-53
2023/01/21 11:06:29;;;;;;;72.00;33.30;;;-2.40;99.90;;;;;;4998463;28;20136;-51
2023/01/21 11:09:01;;;;;;;74.05;32.60;;;-2.40;99.90;;;;;;4996941;28;20065;-51
2023/01/21 11:11:34;;;;;;;71.20;33.92;;;-2.40;99.90;;;;;;4998091;28;20136;-53
2023/01/21 11:14:01;;;;;;;79.43;35.85;;;-2.30;99.90;;;;;;4999744;28;20407;-54
2023/01/21 11:16:35;;;;;;;66.13;32.05;;;-2.30;99.90;;;;;;4999106;28;20118;-53
2023/01/21 11:19:05;;;;;;;66.85;32.65;;;-2.40;99.90;;;;;;4997992;28;20632;-51
2023/01/21 11:21:36;;;;;;;69.15;31.67;;;-2.40;99.90;;;;;;4999497;28;20041;-52
2023/01/21 11:24:19;;;;;;;71.35;32.88;;;-2.30;99.90;;;;;;5000530;28;20045;-52
2023/01/21 11:26:54;;;;;;;69.25;31.95;;;-2.30;99.90;;;;;;4996311;28;20042;-53
2023/01/21 11:29:23;;;;;;;63.60;31.25;;;-2.30;99.90;;;;;;4999335;28;20558;-53
2023/01/21 11:32:01;;;;;;;72.95;32.30;;;-2.30;99.90;;;;;;5000164;28;20046;-51
2023/01/21 11:34:28;;;;;;;67.82;31.40;;;-2.30;99.90;;;;;;4998385;28;20583;-53
2023/01/21 11:37:01;;;;;;;64.47;33.75;;;-2.40;99.90;;;;;;4997437;28;20056;-53
2023/01/21 11:39:33;;;;;;;66.03;31.33;;;-2.40;99.90;;;;;;4999771;28;20107;-54
2023/01/21 11:42:12;;;;;;;64.43;31.40;;;-2.40;99.90;;;;;;4997683;28;20252;-51
2023/01/21 11:45:04;;;;;;;64.97;30.70;;;-2.40;99.90;;;;;;4998420;28;20038;-53
2023/01/21 11:47:38;;;;;;;70.38;32.05;;;-2.40;99.90;;;;;;4998481;28;20689;-52
2023/01/21 11:50:28;;;;;;;66.30;31.88;;;-2.40;99.90;;;;;;4997565;28;20504;-51
2023/01/21 11:53:16;;;;;;;65.20;29.40;;;-2.40;99.90;;;;;;4995342;28;20524;-53
2023/01/21 11:55:45;;;;;;;65.75;31.27;;;-2.50;99.90;;;;;;4986465;28;20064;-52
2023/01/21 11:58:21;;;;;;;61.45;31.35;;;-2.50;99.90;;;;;;4990931;28;20044;-51
2023/01/21 12:00:50;;;;;;;66.47;30.05;;;-2.60;99.90;;;;;;4984441;28;20405;-52
2023/01/21 12:03:24;;;;;;;65.32;30.70;;;-2.60;99.90;;;;;;4982681;28;20120;-52
2023/01/21 12:05:52;;;;;;;60.78;28.42;;;-2.60;99.90;;;;;;4984534;28;20052;-52
2023/01/21 12:08:23;;;;;;;62.10;29.27;;;-2.60;99.90;;;;;;4984045;28;20041;-52
2023/01/21 12:10:52;;;;;;;60.88;29.50;;;-2.70;99.90;;;;;;4984336;28;20042;-52
2023/01/21 12:13:25;;;;;;;50.95;26.65;;;-2.70;99.90;;;;;;4985182;28;20465;-53
2023/01/21 12:16:08;;;;;;;58.63;29.38;;;-2.70;99.90;;;;;;4986766;28;20053;-50
2023/01/21 12:19:09;;;;;;;59.03;27.00;;;-2.70;99.90;;;;;;4983357;28;20155;-52
2023/01/21 12:21:54;;;;;;;53.75;26.45;;;-2.70;99.90;;;;;;4984259;28;20038;-52
2023/01/21 12:24:23;;;;;;;51.05;25.58;;;-2.70;99.90;;;;;;4983503;28;20046;-52
2023/01/21 12:27:15;;;;;;;53.72;27.15;;;-2.70;99.90;;;;;;4984447;28;20049;-52
2023/01/21 12:30:06;;;;;;;50.28;23.13;;;-2.70;99.90;;;;;;4982726;28;20050;-51
2023/01/21 12:32:41;;;;;;;49.03;23.52;;;-2.70;99.90;;;;;;4983309;28;20408;-53
2023/01/21 12:35:34;;;;;;;52.63;24.65;;;-2.70;99.90;;;;;;4981976;28;20050;-53
2023/01/21 12:38:06;;;;;;;44.95;23.30;;;-2.60;99.90;;;;;;4981932;28;20070;-52
2023/01/21 12:40:44;;;;;;;47.53;22.40;;;-2.60;99.90;;;;;;4981062;28;20372;-51
2023/01/21 12:43:21;;;;;;;45.35;21.60;;;-2.60;99.90;;;;;;4982901;28;20057;-51
2023/01/21 12:46:09;;;;;;;48.13;23.92;;;-2.60;99.90;;;;;;4984661;28;20042;-52
2023/01/21 12:49:01;;;;;;;45.38;22.02;;;-2.60;99.90;;;;;;4983339;28;20034;-53
2023/01/21 12:51:35;;;;;;;49.70;24.73;;;-2.50;99.90;;;;;;4983535;28;20274;-52
2023/01/21 12:54:35;;;;;;;51.08;24.33;;;-2.50;99.90;;;;;;4983829;28;20103;-53
2023/01/21 12:57:18;;;;;;;57.75;26.15;;;-2.40;99.90;;;;;;4983786;28;20579;-52
2023/01/21 13:00:02;;;;;;;55.70;24.77;;;-2.40;99.90;;;;;;4983741;28;20117;-52
2023/01/21 13:02:34;;;;;;;53.88;25.42;;;-2.50;99.90;;;;;;4979005;28;20056;-51
2023/01/21 13:05:11;;;;;;;57.47;25.85;;;-2.50;99.90;;;;;;4982954;28;20050;-52
2023/01/21 13:07:52;;;;;;;;;;;-2.50;99.90;;;;;;4982610;28;20041;-51